createdAt,value
2022-08-09T00:07:00.578Z,45.88
2022-08-09T00:18:06.044Z,46.47
2022-08-09T00:20:09.190Z,46.88
2022-08-09T00:23:08.396Z,45.83
2022-08-09T00:26:11.194Z,46.06
2022-08-09T00:28:52.436Z,46.10
2022-08-09T00:31:58.704Z,45.99
2022-08-09T00:34:28.742Z,45.77
2022-08-09T00:37:01.808Z,45.83
2022-08-09T00:40:13.568Z,45.74
2022-08-09T00:44:14.339Z,47.40
2022-08-09T00:45:29.725Z,46.63
2022-08-09T00:47:58.099Z,46.58
2022-08-09T00:50:27.747Z,46.54
2022-08-09T00:52:59.554Z,47.88
2022-08-09T00:55:32.892Z,48.42
2022-08-09T01:01:44.783Z,48.78
2022-08-09T01:04:58.557Z,49.07
2022-08-09T01:08:01.516Z,48.30
2022-08-09T01:11:08.546Z,48.71
2022-08-09T01:14:01.636Z,48.96
2022-08-09T01:16:59.962Z,49.06
2022-08-09T01:20:03.093Z,49.78
2022-08-09T01:24:01.868Z,49.58
2022-08-09T01:26:57.722Z,49.65
2022-08-09T01:30:06.270Z,50.06
2022-08-09T01:33:00.247Z,49.79
2022-08-09T01:36:00.899Z,49.89
2022-08-09T01:38:31.929Z,49.96
2022-08-09T01:41:10.651Z,50.44
2022-08-09T01:44:11.790Z,50.58
2022-08-09T01:47:02.215Z,50.62
2022-08-09T01:49:39.213Z,50.44
2022-08-09T01:52:14.855Z,50.69
2022-08-09T01:55:03.975Z,51.04
2022-08-09T01:58:02.986Z,50.91
2022-08-09T02:00:36.056Z,51.25
2022-08-09T02:03:07.473Z,50.56
2022-08-09T02:06:06.593Z,50.97
2022-08-09T02:09:00.487Z,51.37
2022-08-09T02:11:40.282Z,51.38
2022-08-09T02:17:29.425Z,51.59
2022-08-09T02:20:03.176Z,51.28
2022-08-09T02:22:59.682Z,52.01
2022-08-09T02:25:42.578Z,51.89
2022-08-09T02:29:12.195Z,51.72
2022-08-09T02:32:05.749Z,51.98
2022-08-09T02:37:33.006Z,51.54
2022-08-09T02:40:10.662Z,51.95
2022-08-09T02:43:02.662Z,51.44
2022-08-09T02:46:00.901Z,51.25
2022-08-09T02:49:13.989Z,51.00
2022-08-09T02:51:40.378Z,51.11
2022-08-09T02:54:14.131Z,51.29
2022-08-09T02:57:13.987Z,50.58
2022-08-09T03:00:21.321Z,50.77
2022-08-09T03:03:00.113Z,49.76
2022-08-09T03:05:35.588Z,50.25
2022-08-09T03:08:06.316Z,50.40
2022-08-09T03:10:51.481Z,50.16
2022-08-09T03:13:44.024Z,50.04
2022-08-09T03:16:35.809Z,49.82
2022-08-09T03:19:14.422Z,50.05
2022-08-09T03:22:05.312Z,49.80
2022-08-09T03:24:42.717Z,49.91
2022-08-09T03:27:44.551Z,49.74
2022-08-09T03:30:30.184Z,49.51
2022-08-09T03:33:17.992Z,49.60
2022-08-09T03:36:15.744Z,49.21
2022-08-09T03:39:02.491Z,49.48
2022-08-09T03:41:48.375Z,50.00
2022-08-09T03:44:17.023Z,50.01
2022-08-09T03:46:47.663Z,49.69
2022-08-09T03:49:19.138Z,49.97
2022-08-09T03:52:06.920Z,50.01
2022-08-09T03:57:34.665Z,50.01
2022-08-09T04:01:08.420Z,50.28
2022-08-09T04:04:00.490Z,50.36
2022-08-09T04:06:37.431Z,50.35
2022-08-09T04:09:15.804Z,50.39
2022-08-09T04:12:11.854Z,50.14
2022-08-09T04:17:34.482Z,50.10
2022-08-09T04:20:07.137Z,50.13
2022-08-09T04:22:35.818Z,50.06
2022-08-09T04:25:10.113Z,50.12
2022-08-09T04:28:03.812Z,50.25
2022-08-09T04:30:36.765Z,50.59
2022-08-09T04:33:11.085Z,50.07
2022-08-09T04:39:04.011Z,49.87
2022-08-09T04:41:43.861Z,50.37
2022-08-09T04:44:14.508Z,50.30
2022-08-09T04:47:12.428Z,50.34
2022-08-09T04:52:44.573Z,50.90
2022-08-09T04:55:14.748Z,50.65
2022-08-09T04:58:09.281Z,50.48
2022-08-09T05:00:38.341Z,50.23
2022-08-09T05:03:13.422Z,50.24
2022-08-09T05:06:35.683Z,50.67
2022-08-09T05:09:04.376Z,50.65
2022-08-09T05:11:36.099Z,50.89
2022-08-09T05:14:05.808Z,50.85
2022-08-09T05:16:58.603Z,51.08
2022-08-09T05:19:45.958Z,50.79
2022-08-09T05:22:36.100Z,50.59
2022-08-09T05:25:06.806Z,50.38
2022-08-09T05:27:39.010Z,50.66
2022-08-09T05:30:17.708Z,50.47
2022-08-09T05:33:10.884Z,50.77
2022-08-09T05:35:45.899Z,51.37
2022-08-09T05:38:22.089Z,51.50
2022-08-09T05:41:36.219Z,51.75
2022-08-09T05:44:05.421Z,51.83
2022-08-09T05:46:36.462Z,51.34
2022-08-09T05:49:07.509Z,51.48
2022-08-09T05:52:05.083Z,51.53
2022-08-09T05:54:36.429Z,51.66
2022-08-09T05:57:07.962Z,51.92
2022-08-09T05:59:41.836Z,51.86
2022-08-09T06:02:10.496Z,52.19
2022-08-09T06:04:44.535Z,52.61
2022-08-09T06:07:40.424Z,52.28
2022-08-09T06:10:40.834Z,52.68
2022-08-09T06:13:38.692Z,53.08
2022-08-09T06:16:27.125Z,53.23
2022-08-09T06:19:33.419Z,53.60
2022-08-09T06:22:05.411Z,53.70
2022-08-09T06:24:35.746Z,53.96
2022-08-09T06:27:07.030Z,53.52
2022-08-09T06:29:47.946Z,53.98
2022-08-09T06:32:59.557Z,54.38
2022-08-09T06:36:13.634Z,55.74
2022-08-09T06:38:47.906Z,57.14
2022-08-09T06:41:20.456Z,58.18
2022-08-09T06:44:35.328Z,59.04
2022-08-09T06:49:00.957Z,58.39
2022-08-09T06:50:36.999Z,59.59
2022-08-09T06:53:39.729Z,60.23
2022-08-09T06:56:41.173Z,60.48
2022-08-09T07:00:52.252Z,60.09
2022-08-09T07:02:35.493Z,60.82
2022-08-09T07:06:02.399Z,60.97
2022-08-09T07:08:33.742Z,61.46
2022-08-09T07:11:52.235Z,61.09
2022-08-09T07:16:36.354Z,61.29
2022-08-09T07:18:41.268Z,61.31
2022-08-09T07:21:35.305Z,59.96
2022-08-09T07:24:40.766Z,59.23
2022-08-09T07:27:42.891Z,58.21
2022-08-09T07:30:35.630Z,59.04
2022-08-09T07:39:19.962Z,61.45
2022-08-09T07:42:06.377Z,61.75
2022-08-09T07:44:51.779Z,62.33
2022-08-09T07:47:49.564Z,62.70
2022-08-09T07:50:41.398Z,62.99
2022-08-09T07:53:36.511Z,62.88
2022-08-09T07:56:27.143Z,63.40
2022-08-09T07:59:22.635Z,63.04
2022-08-09T08:02:42.252Z,63.13
2022-08-09T08:05:39.297Z,63.85
2022-08-09T08:09:03.099Z,64.28
2022-08-09T08:12:24.898Z,64.69
2022-08-09T08:14:45.271Z,64.54
2022-08-09T08:17:54.499Z,65.34
2022-08-09T08:20:37.417Z,65.41
2022-08-09T08:23:16.868Z,65.85
2022-08-09T08:26:06.284Z,65.43
2022-08-09T08:28:38.318Z,65.71
2022-08-09T08:32:03.720Z,66.06
2022-08-09T08:34:05.450Z,66.48
2022-08-09T08:36:37.585Z,67.12
2022-08-09T08:39:19.211Z,67.25
2022-08-09T08:42:33.291Z,67.51
2022-08-09T08:45:37.169Z,66.74
2022-08-09T08:48:07.074Z,66.82
2022-08-09T08:50:39.117Z,66.79
2022-08-09T08:53:24.729Z,67.11
2022-08-09T08:56:25.030Z,67.09
2022-08-09T08:59:20.330Z,66.70
2022-08-09T09:02:02.837Z,66.47
2022-08-09T09:04:47.304Z,66.21
2022-08-09T09:07:36.860Z,65.62
2022-08-09T09:10:12.273Z,65.80
2022-08-09T09:12:44.549Z,65.80
2022-08-09T09:15:34.471Z,64.99
2022-08-09T09:18:05.588Z,65.60
2022-08-09T09:20:39.218Z,65.97
2022-08-09T09:23:38.939Z,66.74
2022-08-09T09:26:12.398Z,66.44
2022-08-09T09:29:04.128Z,66.76
2022-08-09T09:32:03.726Z,67.45
2022-08-09T09:34:36.803Z,66.82
2022-08-09T09:37:06.433Z,66.56
2022-08-09T09:40:20.887Z,67.05
2022-08-09T09:43:07.142Z,67.63
2022-08-09T09:49:08.213Z,68.04
2022-08-09T09:51:40.414Z,68.31
2022-08-09T09:54:19.210Z,68.38
2022-08-09T09:58:01.028Z,68.70
2022-08-09T09:59:41.835Z,69.03
2022-08-09T10:02:23.361Z,69.09
2022-08-09T10:05:09.850Z,67.26
2022-08-09T10:07:38.462Z,67.93
2022-08-09T10:10:34.904Z,66.92
2022-08-09T10:13:06.340Z,67.38
2022-08-09T10:16:09.261Z,66.86
2022-08-09T10:18:37.612Z,67.53
2022-08-09T10:21:10.353Z,67.60
2022-08-09T10:23:39.741Z,66.68
2022-08-09T10:26:10.984Z,65.92
2022-08-09T10:28:41.465Z,65.39
2022-08-09T10:34:33.452Z,66.62
2022-08-09T10:37:04.059Z,67.22
2022-08-09T10:39:40.995Z,67.88
2022-08-09T10:42:34.855Z,68.07
2022-08-09T10:45:10.699Z,69.14
2022-08-09T10:48:16.782Z,68.11
2022-08-09T10:51:29.754Z,68.82
2022-08-09T10:54:12.349Z,69.32
2022-08-09T10:56:43.308Z,69.11
2022-08-09T10:59:31.248Z,69.02
2022-08-09T11:03:13.709Z,69.66
2022-08-09T11:05:25.359Z,69.21
2022-08-09T11:08:18.819Z,69.86
2022-08-09T11:11:00.893Z,70.20
2022-08-09T11:13:53.798Z,70.43
2022-08-09T11:16:52.121Z,69.91
2022-08-09T11:20:11.183Z,69.77
2022-08-09T11:22:56.700Z,70.16
2022-08-09T11:25:45.137Z,70.01
2022-08-09T11:28:38.566Z,68.49
2022-08-09T11:31:52.503Z,69.47
2022-08-09T11:34:26.729Z,69.34
2022-08-09T11:37:07.601Z,69.42
2022-08-09T11:40:05.964Z,67.53
2022-08-09T11:42:53.618Z,67.15
2022-08-09T11:45:42.513Z,67.14
2022-08-09T11:48:27.304Z,66.20
2022-08-09T11:52:49.584Z,65.58
2022-08-09T11:54:27.863Z,65.52
2022-08-09T11:58:00.081Z,65.74
2022-08-09T12:00:39.273Z,65.92
2022-08-09T12:10:39.794Z,66.20
2022-08-09T12:14:08.218Z,66.13
2022-08-09T12:19:06.567Z,66.91
2022-08-09T12:22:05.766Z,67.05
2022-08-09T12:25:11.077Z,67.14
2022-08-09T12:29:13.272Z,67.38
2022-08-09T12:34:05.127Z,68.21
2022-08-09T12:40:14.187Z,67.61
2022-08-09T12:43:04.353Z,67.84
2022-08-09T12:46:05.618Z,68.01
2022-08-09T12:57:06.556Z,68.14
2022-08-09T12:59:57.948Z,68.42
2022-08-09T13:03:07.606Z,68.24
2022-08-09T13:06:14.508Z,68.30
2022-08-09T13:10:05.105Z,68.53
2022-08-09T13:13:10.808Z,68.40
2022-08-09T13:20:20.273Z,68.39
2022-08-09T13:23:06.125Z,68.01
2022-08-09T13:26:05.418Z,67.87
2022-08-09T13:32:15.469Z,68.04
2022-08-09T13:35:11.566Z,67.73
2022-08-09T13:38:06.663Z,68.05
2022-08-09T13:41:46.856Z,67.92
2022-08-09T13:44:05.499Z,67.62
2022-08-09T13:50:18.282Z,67.99
2022-08-09T13:53:10.697Z,68.25
2022-08-09T13:55:42.509Z,69.14
2022-08-09T13:59:07.932Z,69.44
2022-08-09T15:56:28.565Z,62.18
2022-08-09T16:24:38.339Z,57.12
2022-08-09T16:27:16.751Z,56.75
2022-08-09T16:29:49.962Z,56.26
2022-08-09T16:32:34.286Z,55.63
2022-08-09T16:35:04.416Z,55.58
2022-08-09T16:37:55.510Z,54.76
2022-08-09T16:40:39.948Z,54.23
2022-08-09T16:43:10.289Z,53.58
2022-08-09T16:45:43.913Z,53.94
2022-08-09T16:48:39.465Z,52.70
2022-08-09T16:51:08.451Z,52.48
2022-08-09T16:56:32.912Z,51.97
2022-08-09T16:59:06.546Z,51.39
2022-08-09T17:01:39.018Z,51.03
2022-08-09T17:04:26.124Z,51.34
2022-08-09T17:08:45.474Z,50.58
2022-08-09T17:09:48.211Z,49.96
2022-08-09T17:12:24.533Z,50.47
2022-08-09T17:15:30.513Z,48.28
2022-08-09T17:18:00.690Z,50.11
2022-08-09T17:20:42.229Z,51.68
2022-08-09T17:24:34.624Z,53.05
2022-08-09T18:38:30.260Z,55.02
2022-08-09T18:41:05.874Z,54.13
2022-08-09T18:43:37.500Z,54.44
2022-08-09T18:46:46.179Z,53.73
2022-08-09T18:49:12.535Z,53.65
2022-08-09T18:51:55.132Z,53.01
2022-08-09T18:54:35.622Z,52.93
2022-08-09T18:57:06.993Z,52.28
2022-08-09T18:59:51.382Z,52.42
2022-08-09T19:02:39.376Z,51.52
2022-08-09T19:05:48.904Z,51.50
2022-08-09T19:11:39.489Z,51.89
2022-08-09T19:14:36.291Z,50.44
2022-08-09T19:23:06.870Z,50.35
2022-08-09T19:26:04.510Z,49.73
2022-08-09T19:28:38.089Z,48.92
2022-08-09T19:31:17.308Z,49.31
2022-08-09T19:36:43.868Z,48.09
2022-08-09T19:42:37.677Z,46.97
2022-08-09T19:45:40.427Z,47.17
2022-08-09T19:49:01.701Z,46.51
2022-08-09T19:51:41.098Z,46.48
2022-08-09T19:54:44.297Z,45.72
2022-08-09T19:57:38.978Z,45.58
2022-08-09T20:00:38.196Z,45.29
2022-08-09T20:04:17.128Z,45.14
2022-08-09T20:06:22.363Z,44.79
2022-08-09T20:10:06.718Z,45.28
